english versiončeská verzedeutsch navigationnavigation françaisenavegación españolnavigazione italiana

Archívy Euromontagna



1976-07-04
Ecce Homo Šternberk

Šternberk/CZ

Klasifikováni



Galerie



1. 103Hans-Ruedi Wittwer/CHBrabham BT 40[-]07:29,64003:43,3901. gr. B8photo
2. 92Josef Binder/CHHorag SV[-]07:39,76003:48,1102. gr. B8photo
3. 65Peter Ernst/DOsella Abarth 2000[SE021-Ernst_]07:40,60003:48,6601. gr. Gr.6photo
4. 64Johann Abt/DLola T290[T290/HU12]07:53,71003:55,6902. gr. Gr.6photo
5. 69Willi Rabl/APorsche Carrera[-]07:55,37003:49,4501. gr. Gr.5photo
6. 120Horst Lassnig/ABMW 2002 Schnitzer[-]08:09,69004:03,2401. gr. Gr.2photo
7. 60Miran Velkoborský/CSMTX 2-01 BMW Alpina[2-01/0201]08:10,28004:04,7303. gr. Gr.6photo
8. 24Jiří Rosický/CZFE[-]08:31,98004:14,9803. gr. B8photo
9. 4Zdeněk Halada/CSBMW 2002[-]08:34,91004:16,1902. gr. Gr.2photo
10. 30Jiří Vančura/CZMTX[-]08:36,44004:17,6704. gr. B8
11. 104Dušan Velímský/CZPorsche Carrera[-]08:37,17004:17,7402. gr. Gr.5photo
12. 182Heiner Lindner/DDRFE[-]08:42,42004:19,2205. gr. B8
13. 24Marián Rajnoha/SKAlfa Romeo GTAJ[cz_velimsky_brno]08:44,32004:22,0203. gr. Gr.2photo
14. 37Jiří Moskal/CZMTX 1-02[-]08:45,41004:21,0206. gr. B8
15. 31Jaroslav Surówka/CSMTX[-]08:45,62004:21,8807. gr. B8
16. 5Janos Toth/HBMW 2002[-]08:45,94004:22,2904. gr. Gr.2photo
17. 81Ulli Melkus/DDRFE[-]08:48,33004:22,6508. gr. B8photo
18. 74Karel Dolejší/CZMTX[-]08:48,39004:21,2409. gr. B8
19. 27Bohumil Plaček/CZMTX 1-03[-]08:48,90004:24,30010. gr. B8
20. 27Zdeněk Vojtěch/CZŠkoda 130RS[-]08:49,48004:13,4005. gr. Gr.2photo
21. 102Hans Temper/APorsche Carrera[-]08:49,53004:24,0803. gr. Gr.5photo
22. 43Frieder Kramer/DDRFE[-]08:50,32004:24,13011. gr. B8
23. 46Jan Koval/CSFE[-]08:51,22004:24,95012. gr. B8
24. 56Bořivoj Kořínek/CZŠkoda Coupé[-]08:51,80004:23,0704. gr. Gr.6photo
25. 34Jaroslav Mlček/CZFE[-]08:54,78004:26,48013. gr. B8
26. 35Josef Morcinek/CZMTX[-]08:56,35004:26,60014. gr. B8
27. 25Miran Velkoborský/CSFE[-]08:57,27004:28,45015. gr. B8photo
28. 29Otto Will/DRenault Alpine[-]08:59,88004:29,5306. gr. Gr.2photo
29. 80Günther Klinger/DDRFE[-]09:00,09004:29,04016. gr. B8
30. 7Paul Riss/DAbarth Corso[-]09:00,56004:29,3304. gr. Gr.6photo
31. 86Wolfgang Küther/DDRFE[-]09:04,12004:30,78017. gr. B8
32. 90Wolfgang Krug/DDRFE[-]09:05,59004:31,06018. gr. B8
33. 44Josef Silbrník/CZFE[-]09:07,65004:31,30019. gr. B8
34. 36Jiří Trávníček/CSMTX[-]09:09,07004:33,63020. gr. B8
35. 28Walter Niessner/AFiat 128 Coupé[-]09:09,24004:33,6007. gr. Gr.2photo
36. 93Franz Engstler/DBMW CSi[-]09:10,60004:34,8305. gr. Gr.5photo
37. 1August Stawicki/DAsturo Gepard Spider[-]09:15,46004:35,7305. gr. Gr.6photo
38. 63Adolf Fešárek/CZMTX[-]09:17,26004:38,57021. gr. B8
39. 26Joachim Anger/DDRMelkus Wartburg[DDR-Anger]09:17,82004:35,7106. gr. Gr.6
40. 91Günther Trockel/DSimca 1000[-]09:18,72004:36,4008. gr. Gr.2
41. 71Josef Michl/CZ[-]09:21,49004:39,90022. gr. B8
42. 51Jan Berák/CZMelkus Lada[SEG-CZ]09:21,56004:38,89023. gr. B8
43. 75Miroslav Starý/CZ[-]09:23,90004:40,90024. gr. B8photo
44. 52Jiří Zezulka/CZŠkoda 110L[-]09:26,50004:42,2909. gr. Gr.2
45. 85Manfred Günther/DDRWartburg 1150[-]09:26,80004:42,91010. gr. Gr.2
46. 66Miloš Lepka/CZMTX[-]09:27,26004:42,40025. gr. B8
47. 39Ján Hašák/SKMTX 1-02[TK9035/76/1-02/]09:29,61004:43,93026. gr. B8
48. 59Jan Lengál/CS[-]09:38,90004:36,08027. gr. B8
49. 116Vojtěch Svoboda/CZŠkoda 110L[-]09:41,06004:49,40011. gr. Gr.2
50. 62Jiří Patera/CS[-]09:41,30004:47,69028. gr. B8
51. 18Marcel Pipek/CSŠkoda 120S[-]09:55,30004:54,47012. gr. Gr.2
52. 70František Dostál/CZŠkoda 110[-]09:57,38004:56,49013. gr. Gr.2
53. 11Helga Heinrich/DDRSpider Wartburg[DDR-Heinrich]09:59,08004:57,7707. gr. Gr.6
54. 68Tomáš Chabr/CZMTX FŠ[-]10:00,20004:58,21029. gr. B8
55. 97 Opuchlich/DDRWartburg 353[-]10:04,35005:01,40014. gr. Gr.2
56. 2Heinz Melkus/DDRMelkus RS 1000[DDR-Melkus]10:07,94005:03,4508. gr. Gr.6
57. 168Martin Karasz/CZŠkoda 110L[-]10:09,54005:03,86015. gr. Gr.2
58. 95Renato Benusiglio/IFord Escort[-]10:11,13005:04,87016. gr. Gr.2photo
59. 75Imré Furmen/HNSU TT S[-]10:13,10005:05,73017. gr. Gr.2
60. 22Franz Zeh/AFiat 128 SL Coupé[-]10:14,52005:03,48018. gr. Gr.2photo
61. 16František Adámek/CZFiat 128 C[-]10:17,24005:08,45019. gr. Gr.2
62. 14Peter Städler/DDRRS 1000[DDR-RS-Städler]10:17,86005:05,6709. gr. Gr.6
63. 15Jan Bláha/CZŠkoda 120S[-]10:21,39005:04,04020. gr. Gr.2
64. 57Vasil Leščenko/SKMTX 2-01 BMW[2-01/0202]10:25,12004:47,47010. gr. Gr.6photo
65. 88Gyorgy Kövari/HWartburg 353[-]10:25,92005:12,60021. gr. Gr.2
66. 107Helmut Assmann/DDRTrabant Assmann[-]10:37,52005:18,74022. gr. Gr.2
67. 12Andras Tar/HFiat Monte Carlo[-]10:39,08005:25,92023. gr. Gr.2
68. 114Rostislav Nedbálek/CZŠkoda 110[-]10:41,11005:05,69024. gr. Gr.2
69. 84Friedrich zu Leiningen/DSimca EC 1000[-]10:44,42005:17,83025. gr. Gr.2
70. 108Jan Bican/CZRenault 15[-]10:47,95005:21,54026. gr. Gr.2
71. 13Jiří Patera/CSLada 2103[-]10:52,34005:24,90027. gr. Gr.2
72. 117Alfred Rabl/ARenault R 5[-]11:35,98005:45,58028. gr. Gr.2
73. 112Pavel Bečka/CZŠkoda 110L Rallye[-]12:43,79005:40,41029. gr. Gr.2
74. 23Aldo Pariseti Frisiani/ILancia HF[-]12:57,89005:32,75030. gr. Gr.2photo

Další

Neklasifikováni

AB20Peter Melkus/DDRMelkus RS 1000[DDR-MelkusP]- Gr.6photo
AB48Laszlo Kotán/HMorris Cooper SJ[-]- Gr.2photo
AB76Adolf Fešárek/CZŠkoda 110L[-]- Gr.2
AB47Jozsef Cserkuti/HNSU TT S[-]- Gr.2
AB78Zdeněk Polívka/CZ[-]- B8
AB82Karl- Heinz Schötter/DChrysler Simca[-]- Gr.2
AB111Stanislav Čambal/CS?[Spider-Cambal_]- Gr.6
AB106Erich Haussmann/ACooper M[-]- Gr.5photo
DQ33Václav Lím/CZAvia[Avia-AE1]- B8
DQ77Jozsef Cserkuti/HNSU TT[-]- Gr.2
DQ116Miroslav Adámek/CZNSU Audi[-]- Gr.2
P98Armin Stengele/DPorsche 9/76 F2[-]- B8
P110Josef Drozd/CZSpider Alfa Romeo[Spider-Roots-Kroupa_]- Gr.6
P58Jiří Gajdoš/CZMTX 2-01 Turbo[2-01/0203]- Gr.6
P55Ivan Dačev/CZBMW 2500[-]- Gr.5
ST94 - [-]- Gr.5
ST103Günther Spinder/APorsche Carrera[-]- Gr.5
ST67Herbert Jerich/ALola[T290/HU02]- Gr.6photo
ST Petr Krejbich/CSNSU[-]- Gr.2photo

Přečteno: 1 x

COUNTER

Do you like our website? If you wish to improve it, please feel free to donate us by any amount.
It will help to increase our racing database


Euromontagna.com is based on database provided by Roman Krejci. Copyright © 1993-2008
All data, texts and other information is protected by copyright law and cannot be used in any form without permission. All pictures on this page are in property of their original authors, photographers or owners and have been kindly provided to EUROMONTAGNA just for use on this website and it is expressely forbidden to use them elsewhere without prior written permission of Euromontagna and the copyright owner.

TOPlist

WWW
www.vrchy.com  www.racingsportscars.com  www.dovrchu.cz  www.cronoscalate.it  www.lemans-series.com  www.fia.com  www.autoklub.cz  www.aaavyfuky.cz